sensor_id;sensor_type;location;lat;lon;timestamp;pressure;altitude;pressure_sealevel;temperature;humidity
61674;BME280;47573;43.832;5.974;2023-03-04T00:01:22;95181.75;;;23.32;68.64
61674;BME280;47573;43.832;5.974;2023-03-04T00:08:04;95183.84;;;23.30;68.79
61674;BME280;47573;43.832;5.974;2023-03-04T00:14:44;95183.28;;;23.28;68.59
61674;BME280;47573;43.832;5.974;2023-03-04T00:21:25;95186.00;;;23.11;68.39
61674;BME280;47573;43.832;5.974;2023-03-04T00:28:06;95179.97;;;22.93;68.48
61674;BME280;47573;43.832;5.974;2023-03-04T00:34:47;95188.53;;;22.85;68.07
61674;BME280;47573;43.832;5.974;2023-03-04T00:41:28;95197.09;;;22.77;67.37
61674;BME280;47573;43.832;5.974;2023-03-04T00:48:10;95199.13;;;22.70;67.54
61674;BME280;47573;43.832;5.974;2023-03-04T00:54:50;95189.09;;;22.70;66.38
61674;BME280;47573;43.832;5.974;2023-03-04T01:01:31;95195.16;;;22.61;66.66
61674;BME280;47573;43.832;5.974;2023-03-04T01:08:13;95199.41;;;22.57;66.79
61674;BME280;47573;43.832;5.974;2023-03-04T01:14:53;95180.75;;;22.49;66.38
61674;BME280;47573;43.832;5.974;2023-03-04T01:21:34;95172.50;;;22.44;65.90
61674;BME280;47573;43.832;5.974;2023-03-04T01:28:16;95169.69;;;22.38;66.00
61674;BME280;47573;43.832;5.974;2023-03-04T01:34:56;95161.91;;;22.30;65.52
61674;BME280;47573;43.832;5.974;2023-03-04T01:41:37;95152.81;;;22.25;65.54
61674;BME280;47573;43.832;5.974;2023-03-04T01:48:23;95155.69;;;22.18;65.45
61674;BME280;47573;43.832;5.974;2023-03-04T01:55:08;95148.97;;;22.09;65.65
61674;BME280;47573;43.832;5.974;2023-03-04T02:01:53;95148.25;;;22.02;65.53
61674;BME280;47573;43.832;5.974;2023-03-04T02:08:35;95132.91;;;21.96;65.49
61674;BME280;47573;43.832;5.974;2023-03-04T02:15:15;95133.88;;;21.90;65.68
61674;BME280;47573;43.832;5.974;2023-03-04T02:21:56;95133.22;;;21.83;65.66
61674;BME280;47573;43.832;5.974;2023-03-04T02:28:38;95126.22;;;21.76;65.64
61674;BME280;47573;43.832;5.974;2023-03-04T02:35:20;95117.13;;;21.70;65.67
61674;BME280;47573;43.832;5.974;2023-03-04T02:42:01;95119.16;;;21.63;65.55
61674;BME280;47573;43.832;5.974;2023-03-04T02:48:44;95122.59;;;21.58;65.71
61674;BME280;47573;43.832;5.974;2023-03-04T02:55:24;95118.94;;;21.53;65.61
61674;BME280;47573;43.832;5.974;2023-03-04T03:02:06;95111.75;;;21.47;65.65
61674;BME280;47573;43.832;5.974;2023-03-04T03:08:48;95118.72;;;21.43;65.65
61674;BME280;47573;43.832;5.974;2023-03-04T03:15:29;95109.84;;;21.36;65.69
61674;BME280;47573;43.832;5.974;2023-03-04T03:22:10;95108.69;;;21.32;65.70
61674;BME280;47573;43.832;5.974;2023-03-04T03:28:51;95114.59;;;21.29;65.49
61674;BME280;47573;43.832;5.974;2023-03-04T03:35:32;95108.44;;;21.22;65.74
61674;BME280;47573;43.832;5.974;2023-03-04T03:42:12;95105.63;;;21.17;65.60
61674;BME280;47573;43.832;5.974;2023-03-04T03:48:54;95108.56;;;21.15;65.37
61674;BME280;47573;43.832;5.974;2023-03-04T03:55:35;95105.50;;;21.12;65.18
61674;BME280;47573;43.832;5.974;2023-03-04T04:02:15;95110.81;;;21.07;65.04
61674;BME280;47573;43.832;5.974;2023-03-04T04:08:57;95103.16;;;21.04;64.81
61674;BME280;47573;43.832;5.974;2023-03-04T04:15:38;95091.34;;;20.98;64.63
61674;BME280;47573;43.832;5.974;2023-03-04T04:22:19;95103.47;;;20.96;64.26
61674;BME280;47573;43.832;5.974;2023-03-04T04:29:01;95101.47;;;20.91;64.39
61674;BME280;47573;43.832;5.974;2023-03-04T04:35:42;95100.03;;;20.89;63.97
61674;BME280;47573;43.832;5.974;2023-03-04T04:42:23;95102.66;;;20.83;64.14
61674;BME280;47573;43.832;5.974;2023-03-04T04:49:05;95100.38;;;20.80;64.23
61674;BME280;47573;43.832;5.974;2023-03-04T04:55:46;95104.63;;;20.76;64.26
61674;BME280;47573;43.832;5.974;2023-03-04T05:02:26;95108.41;;;20.75;64.10
61674;BME280;47573;43.832;5.974;2023-03-04T05:09:08;95109.34;;;20.69;64.11
61674;BME280;47573;43.832;5.974;2023-03-04T05:15:50;95111.94;;;20.64;64.24
61674;BME280;47573;43.832;5.974;2023-03-04T05:22:31;95116.75;;;20.62;64.29
61674;BME280;47573;43.832;5.974;2023-03-04T05:29:13;95122.88;;;20.58;64.23
61674;BME280;47573;43.832;5.974;2023-03-04T05:35:53;95118.75;;;20.55;64.09
61674;BME280;47573;43.832;5.974;2023-03-04T05:42:34;95130.06;;;20.52;64.19
61674;BME280;47573;43.832;5.974;2023-03-04T05:49:16;95132.66;;;20.47;64.30
61674;BME280;47573;43.832;5.974;2023-03-04T05:55:56;95139.75;;;20.48;64.00
61674;BME280;47573;43.832;5.974;2023-03-04T06:02:38;95136.44;;;20.46;64.16
61674;BME280;47573;43.832;5.974;2023-03-04T06:09:20;95134.81;;;20.68;65.11
61674;BME280;47573;43.832;5.974;2023-03-04T06:16:01;95137.44;;;20.87;65.47
61674;BME280;47573;43.832;5.974;2023-03-04T06:22:41;95139.06;;;20.76;64.97
61674;BME280;47573;43.832;5.974;2023-03-04T06:29:23;95142.38;;;20.66;64.79
61674;BME280;47573;43.832;5.974;2023-03-04T06:36:04;95154.25;;;20.65;64.76
61674;BME280;47573;43.832;5.974;2023-03-04T06:42:45;95165.59;;;20.62;64.61
61674;BME280;47573;43.832;5.974;2023-03-04T06:49:27;95172.66;;;20.63;64.45
61674;BME280;47573;43.832;5.974;2023-03-04T06:56:09;95177.88;;;20.65;64.20
61674;BME280;47573;43.832;5.974;2023-03-04T07:02:50;95184.69;;;20.67;63.88
61674;BME280;47573;43.832;5.974;2023-03-04T07:09:32;95178.81;;;20.70;63.55
61674;BME280;47573;43.832;5.974;2023-03-04T07:16:15;95181.66;;;20.75;63.13
61674;BME280;47573;43.832;5.974;2023-03-04T07:22:55;95187.22;;;20.80;62.92
61674;BME280;47573;43.832;5.974;2023-03-04T07:29:37;95193.84;;;20.84;62.49
61674;BME280;47573;43.832;5.974;2023-03-04T07:36:18;95210.03;;;20.91;62.42
61674;BME280;47573;43.832;5.974;2023-03-04T07:42:58;95209.44;;;21.01;62.30
61674;BME280;47573;43.832;5.974;2023-03-04T07:49:40;95218.81;;;21.05;61.54
61674;BME280;47573;43.832;5.974;2023-03-04T07:56:22;95231.81;;;21.14;61.06
61674;BME280;47573;43.832;5.974;2023-03-04T08:03:04;95224.03;;;21.18;60.16
61674;BME280;47573;43.832;5.974;2023-03-04T08:09:45;95230.63;;;21.22;60.19
61674;BME280;47573;43.832;5.974;2023-03-04T08:16:26;95229.94;;;21.26;59.64
61674;BME280;47573;43.832;5.974;2023-03-04T08:23:07;95235.72;;;21.30;59.43
61674;BME280;47573;43.832;5.974;2023-03-04T08:29:48;95231.13;;;21.30;59.28
61674;BME280;47573;43.832;5.974;2023-03-04T08:36:29;95234.09;;;21.29;59.91
61674;BME280;47573;43.832;5.974;2023-03-04T08:43:09;95226.03;;;21.34;59.24
61674;BME280;47573;43.832;5.974;2023-03-04T08:49:51;95227.59;;;21.41;59.42
61674;BME280;47573;43.832;5.974;2023-03-04T08:56:32;95223.91;;;21.36;59.50
61674;BME280;47573;43.832;5.974;2023-03-04T09:03:13;95221.59;;;21.39;59.36
61674;BME280;47573;43.832;5.974;2023-03-04T09:09:55;95215.56;;;21.49;59.21
61674;BME280;47573;43.832;5.974;2023-03-04T09:16:35;95216.84;;;21.58;58.79
61674;BME280;47573;43.832;5.974;2023-03-04T09:23:17;95210.94;;;21.61;59.09
61674;BME280;47573;43.832;5.974;2023-03-04T09:29:59;95218.13;;;21.67;58.50
61674;BME280;47573;43.832;5.974;2023-03-04T09:36:39;95223.84;;;21.77;58.97
61674;BME280;47573;43.832;5.974;2023-03-04T09:43:22;95212.63;;;21.85;58.47
61674;BME280;47573;43.832;5.974;2023-03-04T09:50:08;95210.50;;;21.87;58.52
61674;BME280;47573;43.832;5.974;2023-03-04T09:56:50;95204.69;;;21.95;59.12
61674;BME280;47573;43.832;5.974;2023-03-04T10:03:40;95197.13;;;21.97;58.55
61674;BME280;47573;43.832;5.974;2023-03-04T10:10:27;95191.44;;;21.99;58.46
61674;BME280;47573;43.832;5.974;2023-03-04T10:17:14;95195.44;;;22.08;58.33
61674;BME280;47573;43.832;5.974;2023-03-04T10:23:59;95187.63;;;22.11;58.04
61674;BME280;47573;43.832;5.974;2023-03-04T10:30:43;95184.50;;;22.19;57.88
61674;BME280;47573;43.832;5.974;2023-03-04T10:37:42;95178.50;;;22.17;58.71
61674;BME280;47573;43.832;5.974;2023-03-04T10:44:24;95172.09;;;22.23;58.41
61674;BME280;47573;43.832;5.974;2023-03-04T10:51:19;95169.47;;;22.28;58.24
61674;BME280;47573;43.832;5.974;2023-03-04T10:58:03;95164.75;;;22.24;55.06
61674;BME280;47573;43.832;5.974;2023-03-04T11:04:49;95161.22;;;22.23;53.14
61674;BME280;47573;43.832;5.974;2023-03-04T11:11:37;95159.06;;;22.25;54.28
61674;BME280;47573;43.832;5.974;2023-03-04T11:18:19;95153.16;;;22.28;52.64
61674;BME280;47573;43.832;5.974;2023-03-04T11:37:30;95133.81;;;22.13;41.50
61674;BME280;47573;43.832;5.974;2023-03-04T11:44:13;95125.06;;;22.11;44.46
61674;BME280;47573;43.832;5.974;2023-03-04T11:50:56;95121.13;;;22.19;44.00
61674;BME280;47573;43.832;5.974;2023-03-04T11:57:45;95121.97;;;22.19;43.81
61674;BME280;47573;43.832;5.974;2023-03-04T12:04:39;95105.66;;;22.19;44.36
61674;BME280;47573;43.832;5.974;2023-03-04T12:11:31;95104.69;;;22.25;44.83
61674;BME280;47573;43.832;5.974;2023-03-04T12:18:25;95090.50;;;22.23;44.05
61674;BME280;47573;43.832;5.974;2023-03-04T12:25:39;95079.94;;;22.10;38.13
61674;BME280;47573;43.832;5.974;2023-03-04T12:32:25;95082.25;;;22.18;42.52
61674;BME280;47573;43.832;5.974;2023-03-04T12:39:25;95079.28;;;22.20;43.74
61674;BME280;47573;43.832;5.974;2023-03-04T12:46:17;95065.44;;;22.21;45.17
61674;BME280;47573;43.832;5.974;2023-03-04T12:53:08;95058.69;;;22.24;45.35
61674;BME280;47573;43.832;5.974;2023-03-04T12:59:58;95043.69;;;22.21;46.14
61674;BME280;47573;43.832;5.974;2023-03-04T13:06:42;95036.09;;;22.23;46.51
61674;BME280;47573;43.832;5.974;2023-03-04T13:13:37;95031.16;;;22.20;47.55
61674;BME280;47573;43.832;5.974;2023-03-04T13:20:23;95025.22;;;22.23;47.63
61674;BME280;47573;43.832;5.974;2023-03-04T13:34:46;95013.38;;;22.29;48.51
61674;BME280;47573;43.832;5.974;2023-03-04T13:41:31;95011.22;;;22.31;48.69
61674;BME280;47573;43.832;5.974;2023-03-04T13:48:24;95006.28;;;22.28;49.15
61674;BME280;47573;43.832;5.974;2023-03-04T13:55:35;94996.56;;;22.32;49.70
61674;BME280;47573;43.832;5.974;2023-03-04T14:02:19;94988.97;;;22.34;50.00
61674;BME280;47573;43.832;5.974;2023-03-04T14:09:12;94988.72;;;22.53;49.94
61674;BME280;47573;43.832;5.974;2023-03-04T14:15:53;94974.81;;;22.66;50.47
61674;BME280;47573;43.832;5.974;2023-03-04T14:22:39;94977.63;;;22.71;51.31
61674;BME280;47573;43.832;5.974;2023-03-04T14:29:21;94974.50;;;22.79;51.58
61674;BME280;47573;43.832;5.974;2023-03-04T14:36:02;94955.47;;;22.84;52.40
61674;BME280;47573;43.832;5.974;2023-03-04T14:42:44;94951.69;;;22.85;53.24
61674;BME280;47573;43.832;5.974;2023-03-04T14:49:26;94953.09;;;22.87;53.49
61674;BME280;47573;43.832;5.974;2023-03-04T14:56:08;94948.53;;;22.93;54.23
61674;BME280;47573;43.832;5.974;2023-03-04T15:02:51;94939.28;;;22.94;54.43
61674;BME280;47573;43.832;5.974;2023-03-04T15:09:33;94926.59;;;22.99;55.13
61674;BME280;47573;43.832;5.974;2023-03-04T15:16:14;94926.91;;;23.03;55.42
61674;BME280;47573;43.832;5.974;2023-03-04T15:22:59;94917.78;;;23.14;55.79
61674;BME280;47573;43.832;5.974;2023-03-04T15:29:40;94920.75;;;23.12;55.78
61674;BME280;47573;43.832;5.974;2023-03-04T15:36:21;94917.25;;;23.17;56.14
61674;BME280;47573;43.832;5.974;2023-03-04T15:43:05;94917.84;;;23.19;56.58
61674;BME280;47573;43.832;5.974;2023-03-04T15:49:45;94915.75;;;23.26;56.85
61674;BME280;47573;43.832;5.974;2023-03-04T15:56:28;94915.75;;;23.26;57.01
61674;BME280;47573;43.832;5.974;2023-03-04T16:03:14;94904.56;;;23.23;57.58
61674;BME280;47573;43.832;5.974;2023-03-04T16:09:57;94909.78;;;23.29;57.06
61674;BME280;47573;43.832;5.974;2023-03-04T16:16:38;94895.59;;;23.27;57.93
61674;BME280;47573;43.832;5.974;2023-03-04T16:23:22;94895.09;;;23.30;58.34
61674;BME280;47573;43.832;5.974;2023-03-04T16:30:04;94894.59;;;23.33;58.11
61674;BME280;47573;43.832;5.974;2023-03-04T16:36:44;94892.47;;;23.35;59.03
61674;BME280;47573;43.832;5.974;2023-03-04T16:43:26;94906.66;;;23.37;59.22
61674;BME280;47573;43.832;5.974;2023-03-04T16:50:09;94896.81;;;23.36;59.48
61674;BME280;47573;43.832;5.974;2023-03-04T16:56:50;94901.22;;;23.37;59.78
61674;BME280;47573;43.832;5.974;2023-03-04T17:03:32;94897.19;;;23.45;59.64
61674;BME280;47573;43.832;5.974;2023-03-04T17:10:13;94895.25;;;23.40;59.99
61674;BME280;47573;43.832;5.974;2023-03-04T17:16:54;94898.03;;;23.45;60.43
61674;BME280;47573;43.832;5.974;2023-03-04T17:23:36;94900.69;;;23.40;60.72
61674;BME280;47573;43.832;5.974;2023-03-04T17:30:17;94905.75;;;23.53;59.84
61674;BME280;47573;43.832;5.974;2023-03-04T17:36:58;94908.59;;;23.42;60.89
61674;BME280;47573;43.832;5.974;2023-03-04T17:43:41;94912.81;;;23.54;60.57
61674;BME280;47573;43.832;5.974;2023-03-04T17:50:22;94916.66;;;23.53;61.21
61674;BME280;47573;43.832;5.974;2023-03-04T17:57:03;94917.91;;;23.46;61.29
61674;BME280;47573;43.832;5.974;2023-03-04T18:03:45;94923.63;;;23.44;61.40
61674;BME280;47573;43.832;5.974;2023-03-04T18:10:26;94923.13;;;23.47;61.85
61674;BME280;47573;43.832;5.974;2023-03-04T18:17:06;94928.56;;;23.47;61.53
61674;BME280;47573;43.832;5.974;2023-03-04T18:23:48;94930.25;;;23.53;61.17
61674;BME280;47573;43.832;5.974;2023-03-04T18:30:29;94935.66;;;23.48;61.98
61674;BME280;47573;43.832;5.974;2023-03-04T18:37:10;94934.22;;;23.41;62.37
61674;BME280;47573;43.832;5.974;2023-03-04T18:43:52;94938.38;;;23.48;62.41
61674;BME280;47573;43.832;5.974;2023-03-04T18:50:32;94941.09;;;23.48;62.50
61674;BME280;47573;43.832;5.974;2023-03-04T18:57:13;94957.34;;;23.38;63.82
61674;BME280;47573;43.832;5.974;2023-03-04T19:03:57;94950.66;;;23.51;63.73
61674;BME280;47573;43.832;5.974;2023-03-04T19:10:38;94953.25;;;23.62;63.52
61674;BME280;47573;43.832;5.974;2023-03-04T19:17:18;94964.16;;;23.62;64.08
61674;BME280;47573;43.832;5.974;2023-03-04T19:24:00;94960.34;;;23.63;63.87
61674;BME280;47573;43.832;5.974;2023-03-04T19:30:41;94957.16;;;23.71;63.60
61674;BME280;47573;43.832;5.974;2023-03-04T19:37:21;94959.13;;;23.76;63.81
61674;BME280;47573;43.832;5.974;2023-03-04T19:44:03;94962.13;;;23.74;64.22
61674;BME280;47573;43.832;5.974;2023-03-04T19:50:44;94961.50;;;23.67;64.05
61674;BME280;47573;43.832;5.974;2023-03-04T19:57:24;94970.16;;;23.64;64.61
61674;BME280;47573;43.832;5.974;2023-03-04T20:04:08;94968.38;;;23.75;64.76
61674;BME280;47573;43.832;5.974;2023-03-04T20:10:49;94969.19;;;23.75;64.90
61674;BME280;47573;43.832;5.974;2023-03-04T20:17:29;94968.06;;;23.71;64.76
61674;BME280;47573;43.832;5.974;2023-03-04T20:24:11;94960.44;;;23.47;63.20
61674;BME280;47573;43.832;5.974;2023-03-04T20:30:52;94962.50;;;23.61;64.24
61674;BME280;47573;43.832;5.974;2023-03-04T20:37:32;94969.09;;;23.65;64.83
61674;BME280;47573;43.832;5.974;2023-03-04T20:44:14;94963.94;;;23.69;65.66
61674;BME280;47573;43.832;5.974;2023-03-04T20:50:55;94964.16;;;23.62;65.40
61674;BME280;47573;43.832;5.974;2023-03-04T20:57:35;94962.78;;;23.86;66.55
61674;BME280;47573;43.832;5.974;2023-03-04T21:04:17;94968.59;;;23.95;66.44
61674;BME280;47573;43.832;5.974;2023-03-04T21:10:58;94969.41;;;23.95;67.28
61674;BME280;47573;43.832;5.974;2023-03-04T21:17:38;94956.88;;;23.94;67.26
61674;BME280;47573;43.832;5.974;2023-03-04T21:24:22;94957.13;;;23.93;66.82
61674;BME280;47573;43.832;5.974;2023-03-04T21:31:03;94954.59;;;23.86;65.64
61674;BME280;47573;43.832;5.974;2023-03-04T21:37:44;94950.59;;;23.94;66.35
61674;BME280;47573;43.832;5.974;2023-03-04T21:44:26;94939.97;;;23.97;66.42
61674;BME280;47573;43.832;5.974;2023-03-04T21:51:08;94944.66;;;24.02;66.13
61674;BME280;47573;43.832;5.974;2023-03-04T21:57:50;94931.84;;;24.03;66.29
61674;BME280;47573;43.832;5.974;2023-03-04T22:04:32;94931.84;;;24.03;66.00
61674;BME280;47573;43.832;5.974;2023-03-04T22:11:12;94926.94;;;24.00;66.37
61674;BME280;47573;43.832;5.974;2023-03-04T22:17:53;94921.41;;;23.94;65.80
61674;BME280;47573;43.832;5.974;2023-03-04T22:24:35;94925.69;;;23.85;66.79
61674;BME280;47573;43.832;5.974;2023-03-04T22:31:17;94915.72;;;23.69;66.41
61674;BME280;47573;43.832;5.974;2023-03-04T22:37:57;94911.69;;;23.50;65.44
61674;BME280;47573;43.832;5.974;2023-03-04T22:44:39;94905.31;;;23.40;64.86
61674;BME280;47573;43.832;5.974;2023-03-04T22:51:20;94898.88;;;23.29;64.81
61674;BME280;47573;43.832;5.974;2023-03-04T22:58:02;94889.53;;;23.20;63.85
61674;BME280;47573;43.832;5.974;2023-03-04T23:04:44;94894.59;;;23.11;64.29
61674;BME280;47573;43.832;5.974;2023-03-04T23:11:26;94887.75;;;23.09;64.03
61674;BME280;47573;43.832;5.974;2023-03-04T23:18:07;94878.16;;;23.01;63.81
61674;BME280;47573;43.832;5.974;2023-03-04T23:24:49;94886.50;;;22.95;64.36
61674;BME280;47573;43.832;5.974;2023-03-04T23:31:31;94884.22;;;22.87;64.10
61674;BME280;47573;43.832;5.974;2023-03-04T23:38:11;94881.09;;;22.78;64.55
61674;BME280;47573;43.832;5.974;2023-03-04T23:44:53;94868.25;;;22.74;64.24
61674;BME280;47573;43.832;5.974;2023-03-04T23:51:34;94869.25;;;22.68;63.68
61674;BME280;47573;43.832;5.974;2023-03-04T23:58:14;94866.97;;;22.60;63.24
